Time;durP1;ratioP1;P1;durP2;ratioP2;P2;SDS_P1;SDS_P2;PMS_P1;PMS_P2;Temp;Humidity;BMP_temperature;BMP_pressure;BME280_temperature;BME280_humidity;BME280_pressure;Samples;Min_cycle;Max_cycle;Signal;HPM_P1;HPM_P2
2023/01/05 00:01:09;;;;;;;1.83;1.55;;;;;;;;;;5136209;27;20382;-61
2023/01/05 00:03:34;;;;;;;2.58;1.92;;;;;;;;;;5136349;27;20027;-61
2023/01/05 00:06:00;;;;;;;1.40;0.73;;;;;;;;;;5137080;27;20027;-61
2023/01/05 00:08:26;;;;;;;1.63;1.50;;;;;;;;;;5137085;27;20529;-62
2023/01/05 00:24:30;;;;;;;2.67;1.80;;;;;;;;;;5135510;27;20046;-62
2023/01/05 00:26:56;;;;;;;1.70;1.60;;;;;;;;;;5136812;27;20023;-62
2023/01/05 00:29:21;;;;;;;1.58;1.48;;;;;;;;;;5136783;27;20054;-62
2023/01/05 00:31:47;;;;;;;2.35;1.95;;;;;;;;;;5135005;27;20033;-62
2023/01/05 00:34:12;;;;;;;1.80;1.70;;;;;;;;;;5135101;27;20508;-62
2023/01/05 00:36:38;;;;;;;1.65;1.55;;;;;;;;;;5133218;27;20038;-62
2023/01/05 00:39:04;;;;;;;2.15;1.95;;;;;;;;;;5133033;27;20027;-63
2023/01/05 00:41:30;;;;;;;1.85;1.60;;;;;;;;;;5134156;27;20510;-62
2023/01/05 00:43:57;;;;;;;1.92;1.83;;;;;;;;;;5133235;27;20060;-63
2023/01/05 00:46:23;;;;;;;1.50;1.40;;;;;;;;;;5132916;27;20061;-62
2023/01/05 00:48:51;;;;;;;1.35;1.25;;;;;;;;;;5134648;27;20454;-62
2023/01/05 00:51:17;;;;;;;1.40;1.30;;;;;;;;;;5136047;27;20055;-62
2023/01/05 00:53:45;;;;;;;1.95;1.85;;;;;;;;;;5134215;27;20063;-62
2023/01/05 00:56:16;;;;;;;2.00;1.83;;;;;;;;;;5135661;27;20019;-62
2023/01/05 00:59:09;;;;;;;2.30;1.92;;;;;;;;;;5117901;27;20039;-62
2023/01/05 01:01:46;;;;;;;1.88;1.77;;;;;;;;;;5134549;27;20023;-62
2023/01/05 01:04:21;;;;;;;2.50;1.70;;;;;;;;;;5135700;27;20054;-62
2023/01/05 01:06:58;;;;;;;1.58;1.42;;;;;;;;;;5118795;27;20419;-62
2023/01/05 01:09:23;;;;;;;1.52;1.42;;;;;;;;;;5135692;27;20046;-62
2023/01/05 01:11:49;;;;;;;1.88;1.77;;;;;;;;;;5134511;27;20076;-62
2023/01/05 01:14:14;;;;;;;1.90;1.45;;;;;;;;;;5135456;27;20058;-62
2023/01/05 01:16:41;;;;;;;1.92;1.77;;;;;;;;;;5134235;27;20455;-62
2023/01/05 01:19:07;;;;;;;1.67;1.45;;;;;;;;;;5135466;27;20117;-62
2023/01/05 01:21:33;;;;;;;1.50;1.40;;;;;;;;;;5134153;27;20401;-62
2023/01/05 01:23:59;;;;;;;1.85;1.45;;;;;;;;;;5135432;27;20023;-62
2023/01/05 01:26:31;;;;;;;1.50;1.30;;;;;;;;;;5135309;27;20064;-63
2023/01/05 01:29:00;;;;;;;0.90;0.80;;;;;;;;;;5133920;27;20046;-62
2023/01/05 01:31:25;;;;;;;1.42;1.20;;;;;;;;;;5135353;27;20057;-62
2023/01/05 01:33:51;;;;;;;1.77;1.33;;;;;;;;;;5133999;27;20019;-63
2023/01/05 01:36:17;;;;;;;1.08;1.05;;;;;;;;;;5133933;27;20071;-62
2023/01/05 01:38:43;;;;;;;2.17;1.23;;;;;;;;;;5135130;27;20080;-63
2023/01/05 01:41:12;;;;;;;1.67;1.58;;;;;;;;;;5133678;27;20435;-63
2023/01/05 01:43:41;;;;;;;1.70;1.60;;;;;;;;;;5133611;27;20023;-62
2023/01/05 01:46:07;;;;;;;1.70;1.60;;;;;;;;;;5116532;27;20031;-63
2023/01/05 01:48:36;;;;;;;1.40;1.30;;;;;;;;;;5133609;27;20038;-63
2023/01/05 01:51:06;;;;;;;1.42;1.35;;;;;;;;;;5134948;27;20035;-62
2023/01/05 01:53:40;;;;;;;1.40;1.30;;;;;;;;;;5133563;27;20029;-62
2023/01/05 01:56:10;;;;;;;1.60;1.50;;;;;;;;;;5133445;27;20027;-62
2023/01/05 01:58:41;;;;;;;1.85;1.45;;;;;;;;;;5133690;27;20024;-62
2023/01/05 02:01:08;;;;;;;;;;;;;;;;;;5133332;27;20035;-63
2023/01/05 02:03:36;;;;;;;1.15;1.00;;;;;;;;;;5134488;27;20282;-62
2023/01/05 02:06:09;;;;;;;1.50;1.40;;;;;;;;;;5134404;27;20550;-62
2023/01/05 02:08:38;;;;;;;1.65;1.27;;;;;;;;;;5133384;27;20020;-62
2023/01/05 02:11:07;;;;;;;1.60;1.50;;;;;;;;;;5134568;27;20110;-63
2023/01/05 02:13:54;;;;;;;3.00;1.50;;;;;;;;;;5133155;27;20043;-62
2023/01/05 02:16:28;;;;;;;1.20;1.20;;;;;;;;;;5133291;27;20465;-62
2023/01/05 02:19:44;;;;;;;;;;;;;;;;;;;;;
2023/01/05 02:22:44;;;;;;;1.25;1.20;;;;;;;;;;5133231;27;20031;-63
2023/01/05 02:25:33;;;;;;;1.73;1.63;;;;;;;;;;5133026;27;20114;-62
2023/01/05 02:28:04;;;;;;;1.25;1.25;;;;;;;;;;5133269;27;20419;-62
2023/01/05 02:30:38;;;;;;;1.10;1.10;;;;;;;;;;5133164;28;20386;-62
2023/01/05 02:33:09;;;;;;;1.17;1.08;;;;;;;;;;5134584;27;20023;-62
2023/01/05 02:36:05;;;;;;;1.40;0.82;;;;;;;;;;5132946;28;20030;-62
2023/01/05 02:38:51;;;;;;;2.08;1.30;;;;;;;;;;5117399;28;20063;-62
2023/01/05 02:41:42;;;;;;;1.40;1.25;;;;;;;;;;5132730;28;20051;-62
2023/01/05 02:44:10;;;;;;;1.10;1.00;;;;;;;;;;5134409;27;20038;-62
2023/01/05 02:46:38;;;;;;;0.90;0.90;;;;;;;;;;5134261;27;20023;-62
2023/01/05 02:49:15;;;;;;;0.60;0.60;;;;;;;;;;5134374;27;20059;-62
2023/01/05 02:51:59;;;;;;;0.80;0.80;;;;;;;;;;5134432;27;20049;-61
2023/01/05 02:54:42;;;;;;;1.25;0.90;;;;;;;;;;5132676;28;20363;-62
2023/01/05 02:57:45;;;;;;;1.60;1.17;;;;;;;;;;5132836;28;20393;-62
2023/01/05 03:00:10;;;;;;;0.90;0.90;;;;;;;;;;5134105;28;20058;-62
2023/01/05 03:02:53;;;;;;;0.60;0.60;;;;;;;;;;5132788;28;20557;-62
2023/01/05 03:05:52;;;;;;;1.02;1.02;;;;;;;;;;5133976;27;20027;-61
2023/01/05 03:08:47;;;;;;;1.08;1.00;;;;;;;;;;5133085;28;20045;-61
2023/01/05 03:14:45;;;;;;;1.77;0.47;;;;;;;;;;5133850;27;20057;-61
2023/01/05 03:17:37;;;;;;;1.60;0.85;;;;;;;;;;5117756;27;20027;-61
2023/01/05 03:20:46;;;;;;;0.85;0.85;;;;;;;;;;5136473;27;20023;-62
2023/01/05 03:36:48;;;;;;;;;;;;;;;;;;;;;
2023/01/05 03:39:43;;;;;;;0.90;0.90;;;;;;;;;;5137378;27;20033;-62
2023/01/05 03:43:02;;;;;;;;;;;;;;;;;;;;;
2023/01/05 03:45:48;;;;;;;1.25;0.88;;;;;;;;;;5137429;27;20094;-62
2023/01/05 03:48:29;;;;;;;0.88;0.80;;;;;;;;;;5136165;27;20112;-61
2023/01/05 03:51:06;;;;;;;0.80;0.80;;;;;;;;;;5136116;27;20027;-62
2023/01/05 03:53:37;;;;;;;1.15;0.90;;;;;;;;;;5136023;27;20031;-62
2023/01/05 03:56:17;;;;;;;1.00;0.98;;;;;;;;;;5136016;27;20081;-61
2023/01/05 03:58:47;;;;;;;0.75;0.75;;;;;;;;;;5137004;27;20023;-62
2023/01/05 04:01:16;;;;;;;1.02;0.88;;;;;;;;;;5135675;27;20498;-62
2023/01/05 04:03:58;;;;;;;2.03;0.98;;;;;;;;;;5136041;27;20035;-61
2023/01/05 04:06:37;;;;;;;0.93;0.90;;;;;;;;;;5135489;27;20043;-62
2023/01/05 04:09:34;;;;;;;0.88;0.88;;;;;;;;;;5135482;27;20447;-62
2023/01/05 04:12:06;;;;;;;;;;;;;;;;;;5135201;27;20038;-62
2023/01/05 04:14:40;;;;;;;0.82;0.82;;;;;;;;;;5137092;27;19907;-62
2023/01/05 04:17:12;;;;;;;1.05;1.02;;;;;;;;;;5135345;27;20057;-62
2023/01/05 04:19:43;;;;;;;0.70;0.70;;;;;;;;;;5135235;27;20049;-62
2023/01/05 04:22:30;;;;;;;0.98;0.90;;;;;;;;;;5135207;27;20061;-62
2023/01/05 04:25:06;;;;;;;0.90;0.90;;;;;;;;;;5135460;27;20080;-62
2023/01/05 04:27:35;;;;;;;1.00;0.90;;;;;;;;;;5136864;27;20377;-63
2023/01/05 04:30:05;;;;;;;1.33;1.08;;;;;;;;;;5135135;27;20397;-62
2023/01/05 04:32:47;;;;;;;;;;;;;;;;;;;;;
2023/01/05 04:35:28;;;;;;;1.00;1.00;;;;;;;;;;5135223;27;20080;-62
2023/01/05 04:38:01;;;;;;;1.48;0.63;;;;;;;;;;5118270;27;20022;-62
2023/01/05 04:40:31;;;;;;;1.65;1.10;;;;;;;;;;5134955;27;20033;-62
2023/01/05 04:43:10;;;;;;;1.10;1.00;;;;;;;;;;5134704;27;20057;-62
2023/01/05 04:45:39;;;;;;;1.00;1.00;;;;;;;;;;5135016;27;20026;-62
2023/01/05 04:48:10;;;;;;;1.15;1.08;;;;;;;;;;5134930;27;20029;-62
2023/01/05 04:50:46;;;;;;;0.82;0.82;;;;;;;;;;5117942;27;20431;-62
2023/01/05 04:53:24;;;;;;;0.95;0.88;;;;;;;;;;5134629;27;20025;-62
2023/01/05 04:55:56;;;;;;;2.17;0.77;;;;;;;;;;5134928;27;20062;-62
2023/01/05 04:58:32;;;;;;;1.70;1.00;;;;;;;;;;5134548;27;20427;-62
2023/01/05 05:01:08;;;;;;;0.45;0.45;;;;;;;;;;5134641;27;20067;-62
2023/01/05 05:03:45;;;;;;;1.63;1.02;;;;;;;;;;5134397;27;20118;-62
2023/01/05 05:06:44;;;;;;;1.05;0.98;;;;;;;;;;5134405;27;20038;-62
2023/01/05 05:09:26;;;;;;;1.08;0.98;;;;;;;;;;5118173;27;20027;-62
2023/01/05 05:12:07;;;;;;;0.90;0.90;;;;;;;;;;5134382;27;20031;-62
2023/01/05 05:14:47;;;;;;;1.00;1.00;;;;;;;;;;5135915;27;20033;-62
2023/01/05 05:17:36;;;;;;;;;;;;;;;;;;;;;
2023/01/05 05:20:15;;;;;;;1.00;1.00;;;;;;;;;;5133523;27;20030;-62
2023/01/05 05:23:16;;;;;;;1.02;0.93;;;;;;;;;;5135846;27;20061;-63
2023/01/05 05:26:37;;;;;;;1.20;1.10;;;;;;;;;;5133181;27;20027;-62
2023/01/05 05:29:04;;;;;;;0.95;0.95;;;;;;;;;;5126468;27;20501;-62
2023/01/05 05:31:38;;;;;;;1.50;1.40;;;;;;;;;;5135379;27;20025;-62
2023/01/05 05:34:13;;;;;;;1.73;1.48;;;;;;;;;;5134213;27;20496;-62
2023/01/05 05:37:08;;;;;;;0.95;0.95;;;;;;;;;;5134280;27;20389;-62
2023/01/05 05:39:57;;;;;;;;;;;;;;;;;;;;;
2023/01/05 05:42:27;;;;;;;1.85;1.58;;;;;;;;;;5132940;27;20051;-62
2023/01/05 05:44:54;;;;;;;1.27;1.17;;;;;;;;;;5133081;27;20074;-62
2023/01/05 05:47:20;;;;;;;1.52;1.17;;;;;;;;;;5132112;27;20084;-62
2023/01/05 05:49:49;;;;;;;2.22;1.08;;;;;;;;;;5133337;27;20423;-62
2023/01/05 05:52:21;;;;;;;1.48;1.33;;;;;;;;;;5133138;27;20531;-62
2023/01/05 05:55:01;;;;;;;2.33;1.60;;;;;;;;;;5132171;27;20068;-62
2023/01/05 05:57:30;;;;;;;3.28;1.40;;;;;;;;;;5131986;27;20027;-62
2023/01/05 06:00:12;;;;;;;0.82;0.70;;;;;;;;;;5132178;27;20363;-63
2023/01/05 06:02:39;;;;;;;;;;;;;;;;;;5133017;27;20442;-62
2023/01/05 06:05:06;;;;;;;1.20;0.98;;;;;;;;;;5130799;27;19903;-62
2023/01/05 06:07:37;;;;;;;0.80;0.70;;;;;;;;;;5132430;27;20035;-62
2023/01/05 06:10:05;;;;;;;0.50;0.50;;;;;;;;;;5133778;27;20035;-62
2023/01/05 06:12:38;;;;;;;1.90;0.50;;;;;;;;;;5133549;27;20019;-62
2023/01/05 06:15:07;;;;;;;0.60;0.60;;;;;;;;;;5133699;27;20513;-61
2023/01/05 06:17:56;;;;;;;0.80;0.70;;;;;;;;;;5132359;27;20019;-61
2023/01/05 06:20:34;;;;;;;0.50;0.50;;;;;;;;;;5133631;27;20054;-61
2023/01/05 06:23:12;;;;;;;0.98;0.60;;;;;;;;;;5134201;27;20016;-62
2023/01/05 06:25:42;;;;;;;1.75;0.63;;;;;;;;;;5134502;27;20023;-62
2023/01/05 06:28:08;;;;;;;0.93;0.82;;;;;;;;;;5134627;27;20062;-62
2023/01/05 06:31:00;;;;;;;1.15;0.90;;;;;;;;;;5134371;27;20043;-62
2023/01/05 06:34:12;;;;;;;1.42;0.60;;;;;;;;;;5131989;27;20031;-62
2023/01/05 06:36:58;;;;;;;0.70;0.70;;;;;;;;;;5133523;28;20034;-62
2023/01/05 06:39:35;;;;;;;0.50;0.50;;;;;;;;;;5134462;27;20030;-62
2023/01/05 06:42:21;;;;;;;0.70;0.60;;;;;;;;;;5134303;27;20444;-62
2023/01/05 06:45:16;;;;;;;0.85;0.50;;;;;;;;;;5134397;27;20535;-62
2023/01/05 06:48:02;;;;;;;0.80;0.70;;;;;;;;;;5132556;28;20096;-62
2023/01/05 06:50:44;;;;;;;0.63;0.63;;;;;;;;;;5132925;28;20032;-62
2023/01/05 06:53:36;;;;;;;0.70;0.60;;;;;;;;;;5136481;27;20031;-62
2023/01/05 06:59:44;;;;;;;0.77;0.60;;;;;;;;;;5138503;27;19914;-62
2023/01/05 07:02:13;;;;;;;0.73;0.52;;;;;;;;;;5138937;27;20031;-62
2023/01/05 07:04:40;;;;;;;0.60;0.40;;;;;;;;;;5138869;27;20030;-62
2023/01/05 07:10:54;;;;;;;0.98;0.85;;;;;;;;;;5138465;27;20075;-61
2023/01/05 07:13:32;;;;;;;0.68;0.68;;;;;;;;;;5137915;27;20027;-62
2023/01/05 07:16:04;;;;;;;0.57;0.57;;;;;;;;;;5138135;27;20055;-62
2023/01/05 07:18:38;;;;;;;2.42;0.70;;;;;;;;;;5137365;27;20119;-62
2023/01/05 07:21:07;;;;;;;1.13;0.60;;;;;;;;;;5134692;27;20027;-62
2023/01/05 07:23:41;;;;;;;0.70;0.60;;;;;;;;;;5134439;27;20045;-62
2023/01/05 07:26:13;;;;;;;0.77;0.60;;;;;;;;;;5135816;27;20035;-62
2023/01/05 07:28:45;;;;;;;0.65;0.60;;;;;;;;;;5135826;27;20023;-62
2023/01/05 07:31:12;;;;;;;;;;;;;;;;;;5136121;27;20115;-62
2023/01/05 07:33:45;;;;;;;0.60;0.60;;;;;;;;;;5135674;27;20377;-62
2023/01/05 07:36:28;;;;;;;0.50;0.50;;;;;;;;;;5135909;27;20034;-62
2023/01/05 07:39:04;;;;;;;0.57;0.57;;;;;;;;;;5135571;27;20035;-62
2023/01/05 07:41:41;;;;;;;0.65;0.57;;;;;;;;;;5135840;27;20472;-62
2023/01/05 07:44:17;;;;;;;0.77;0.50;;;;;;;;;;5137523;27;20505;-61
2023/01/05 07:46:53;;;;;;;0.75;0.70;;;;;;;;;;5137662;27;20054;-62
2023/01/05 07:49:30;;;;;;;0.82;0.50;;;;;;;;;;5136149;27;20041;-62
2023/01/05 07:52:03;;;;;;;0.50;0.50;;;;;;;;;;5137426;27;20038;-63
2023/01/05 07:54:36;;;;;;;0.73;0.73;;;;;;;;;;5137427;27;20485;-62
2023/01/05 07:57:08;;;;;;;1.38;0.70;;;;;;;;;;5137433;27;20098;-63
2023/01/05 07:59:42;;;;;;;1.30;0.68;;;;;;;;;;5136171;27;20027;-62
2023/01/05 08:02:12;;;;;;;1.23;1.10;;;;;;;;;;5137334;27;20381;-62
2023/01/05 08:04:45;;;;;;;1.42;0.73;;;;;;;;;;5136821;27;20051;-62
2023/01/05 08:07:20;;;;;;;0.75;0.68;;;;;;;;;;5137198;27;20080;-62
2023/01/05 08:13:58;;;;;;;0.93;0.80;;;;;;;;;;5135566;27;20532;-62
2023/01/05 08:15:35;;;;;;;1.10;0.68;;;;;;;;;;5137029;27;20470;-62
2023/01/05 08:18:12;;;;;;;0.45;0.40;;;;;;;;;;5136987;27;20023;-62
2023/01/05 08:21:11;;;;;;;1.02;0.57;;;;;;;;;;5135790;27;20031;-62
2023/01/05 08:23:52;;;;;;;1.20;0.80;;;;;;;;;;5137166;27;20020;-63
2023/01/05 08:26:32;;;;;;;2.45;0.73;;;;;;;;;;5137035;27;20031;-62
2023/01/05 08:29:07;;;;;;;0.68;0.68;;;;;;;;;;5136895;27;20023;-62
2023/01/05 08:31:46;;;;;;;1.17;0.98;;;;;;;;;;5136769;27;20106;-61
2023/01/05 08:34:22;;;;;;;1.55;1.02;;;;;;;;;;5134984;27;20027;-62
2023/01/05 08:36:56;;;;;;;3.45;1.00;;;;;;;;;;5136637;27;20497;-63
2023/01/05 08:39:35;;;;;;;;;;;;;;;;;;5137123;27;20026;-62
2023/01/05 08:42:14;;;;;;;5.10;2.55;;;;;;;;;;5136122;27;19977;-62
2023/01/05 08:44:56;;;;;;;5.95;2.63;;;;;;;;;;5136488;27;20500;-62
2023/01/05 08:47:36;;;;;;;2.80;1.55;;;;;;;;;;5136344;27;20058;-61
2023/01/05 08:50:08;;;;;;;0.93;0.90;;;;;;;;;;5136245;27;20027;-62
2023/01/05 08:52:47;;;;;;;1.48;1.20;;;;;;;;;;5118803;27;20440;-61
2023/01/05 08:55:19;;;;;;;2.88;1.33;;;;;;;;;;5136335;27;20027;-62
2023/01/05 08:57:51;;;;;;;1.20;0.73;;;;;;;;;;5136227;27;20077;-62
2023/01/05 09:00:24;;;;;;;2.63;1.70;;;;;;;;;;5136178;27;20027;-62
2023/01/05 09:02:54;;;;;;;3.92;2.45;;;;;;;;;;5136132;27;20023;-62
2023/01/05 09:05:26;;;;;;;1.70;1.40;;;;;;;;;;5134948;27;20474;-62
2023/01/05 09:08:05;;;;;;;1.48;1.17;;;;;;;;;;5136089;27;20481;-62
2023/01/05 09:11:00;;;;;;;2.17;1.45;;;;;;;;;;5135868;27;20034;-62
2023/01/05 09:13:38;;;;;;;1.98;1.52;;;;;;;;;;5134858;27;20027;-63
2023/01/05 09:16:13;;;;;;;1.75;1.52;;;;;;;;;;5135230;27;20030;-62
2023/01/05 09:18:49;;;;;;;1.73;1.30;;;;;;;;;;5135767;27;20027;-62
2023/01/05 09:21:20;;;;;;;2.65;1.45;;;;;;;;;;5135741;27;20034;-61
2023/01/05 09:23:58;;;;;;;1.67;1.15;;;;;;;;;;5135699;27;20152;-61
2023/01/05 09:26:31;;;;;;;2.13;1.55;;;;;;;;;;5135635;27;20490;-61
2023/01/05 09:29:09;;;;;;;1.92;1.55;;;;;;;;;;5135665;27;20080;-61
2023/01/05 09:31:42;;;;;;;2.30;1.38;;;;;;;;;;5135447;27;20579;-61
2023/01/05 09:34:26;;;;;;;3.78;1.73;;;;;;;;;;5135419;27;20373;-61
2023/01/05 09:37:02;;;;;;;2.60;1.38;;;;;;;;;;5135429;27;20108;-62
2023/01/05 09:39:38;;;;;;;2.53;1.45;;;;;;;;;;5135322;27;20042;-61
2023/01/05 09:42:18;;;;;;;1.85;1.50;;;;;;;;;;5135153;27;20043;-62
2023/01/05 09:45:06;;;;;;;2.40;1.45;;;;;;;;;;5134400;27;20500;-61
2023/01/05 09:47:47;;;;;;;2.22;1.60;;;;;;;;;;5135320;27;20080;-61
2023/01/05 09:50:39;;;;;;;1.50;1.40;;;;;;;;;;5135229;27;20362;-61
2023/01/05 09:53:21;;;;;;;1.63;1.52;;;;;;;;;;5135245;27;20043;-62
2023/01/05 09:56:00;;;;;;;1.77;1.48;;;;;;;;;;5135178;27;20062;-63
2023/01/05 09:58:53;;;;;;;2.15;1.13;;;;;;;;;;5135137;27;20034;-62
2023/01/05 10:01:23;;;;;;;2.53;1.48;;;;;;;;;;5133487;27;20432;-62
2023/01/05 10:04:05;;;;;;;1.23;1.00;;;;;;;;;;5133854;27;20038;-62
2023/01/05 10:06:43;;;;;;;2.13;1.38;;;;;;;;;;5134960;27;20110;-62
2023/01/05 10:09:41;;;;;;;1.98;1.48;;;;;;;;;;5134892;27;20035;-62
2023/01/05 10:15:27;;;;;;;2.45;2.20;;;;;;;;;;5134965;27;20027;-62
2023/01/05 10:18:03;;;;;;;2.72;1.70;;;;;;;;;;5133258;27;20051;-62
2023/01/05 10:20:45;;;;;;;1.55;1.30;;;;;;;;;;5134727;27;20030;-62
2023/01/05 10:23:20;;;;;;;1.58;1.10;;;;;;;;;;5134834;27;20022;-62
2023/01/05 10:26:02;;;;;;;1.95;1.33;;;;;;;;;;5133140;27;20385;-62
2023/01/05 10:29:07;;;;;;;1.70;1.20;;;;;;;;;;5134562;27;20051;-62
2023/01/05 10:31:47;;;;;;;2.88;1.80;;;;;;;;;;5125133;27;20039;-62
2023/01/05 10:34:25;;;;;;;2.47;1.80;;;;;;;;;;5132554;28;20030;-61
2023/01/05 10:36:59;;;;;;;2.15;1.50;;;;;;;;;;5134691;27;20031;-62
2023/01/05 10:39:28;;;;;;;2.28;1.60;;;;;;;;;;5134801;27;20015;-62
2023/01/05 10:41:56;;;;;;;3.45;1.60;;;;;;;;;;5134422;27;20047;-62
2023/01/05 10:44:38;;;;;;;3.78;1.48;;;;;;;;;;5135098;27;20031;-62
2023/01/05 10:47:09;;;;;;;1.58;1.42;;;;;;;;;;5133611;28;20027;-62
2023/01/05 10:49:40;;;;;;;2.45;1.50;;;;;;;;;;5133193;28;20143;-62
2023/01/05 10:52:16;;;;;;;2.28;1.40;;;;;;;;;;5134960;27;20051;-62
2023/01/05 10:54:46;;;;;;;2.13;1.23;;;;;;;;;;5134746;27;20098;-62
2023/01/05 10:57:31;;;;;;;1.55;1.45;;;;;;;;;;5134410;27;20024;-62
2023/01/05 10:59:57;;;;;;;2.80;1.55;;;;;;;;;;5134749;27;20031;-61
2023/01/05 11:02:24;;;;;;;1.85;1.33;;;;;;;;;;5134634;27;20026;-62
2023/01/05 11:04:50;;;;;;;1.25;1.15;;;;;;;;;;5134607;27;20507;-62
2023/01/05 11:07:16;;;;;;;1.63;1.10;;;;;;;;;;5133039;28;20046;-62
2023/01/05 11:09:44;;;;;;;2.13;1.30;;;;;;;;;;5133856;27;20136;-65
2023/01/05 11:12:30;;;;;;;1.63;1.53;;;;;;;;;;5131761;28;20375;-62
2023/01/05 11:15:01;;;;;;;1.15;1.05;;;;;;;;;;5133182;27;20276;-62
2023/01/05 11:17:38;;;;;;;1.77;1.50;;;;;;;;;;5133131;27;20359;-63
2023/01/05 11:20:15;;;;;;;1.67;1.50;;;;;;;;;;5131440;28;20492;-65
2023/01/05 11:22:47;;;;;;;2.08;1.00;;;;;;;;;;5131860;28;20030;-63
2023/01/05 11:25:24;;;;;;;2.42;1.20;;;;;;;;;;5133055;27;20031;-62
2023/01/05 11:28:07;;;;;;;1.42;1.30;;;;;;;;;;5133086;27;20027;-62
2023/01/05 11:31:10;;;;;;;;;;;;;;;;;;;;;
2023/01/05 11:34:21;;;;;;;3.03;1.73;;;;;;;;;;5132846;28;20027;-63
2023/01/05 11:45:03;;;;;;;2.58;1.23;;;;;;;;;;5136575;27;20027;-63
2023/01/05 11:48:19;;;;;;;;;;;;;;;;;;;;;
2023/01/05 11:54:43;;;;;;;2.17;1.17;;;;;;;;;;5072833;28;20271;-63
2023/01/05 11:57:48;;;;;;;1.27;0.93;;;;;;;;;;5071817;28;20036;-62
2023/01/05 12:00:49;;;;;;;2.17;1.30;;;;;;;;;;5056046;28;20067;-62
2023/01/05 12:04:02;;;;;;;;;;;;;;;;;;;;;
2023/01/05 12:13:58;;;;;;;1.88;1.38;;;;;;;;;;5129982;27;20050;-63
2023/01/05 12:28:01;;;;;;;;;;;;;;;;;;;;;
2023/01/05 12:35:40;;;;;;;;;;;;;;;;;;;;;
2023/01/05 12:39:28;;;;;;;1.73;1.17;;;;;;;;;;5006611;28;20500;-71
2023/01/05 12:46:46;;;;;;;2.55;1.13;;;;;;;;;;5086792;28;20051;-71
2023/01/05 12:50:22;;;;;;;1.58;1.05;;;;;;;;;;5089741;28;20451;-72
2023/01/05 12:53:05;;;;;;;1.70;1.25;;;;;;;;;;5057468;28;20048;-73
2023/01/05 12:56:14;;;;;;;3.78;0.93;;;;;;;;;;5074252;28;20382;-72
2023/01/05 12:59:08;;;;;;;;;;;;;;;;;;;;;
2023/01/05 13:02:13;;;;;;;0.88;0.80;;;;;;;;;;5091875;28;20506;-72
2023/01/05 13:08:51;;;;;;;1.20;1.10;;;;;;;;;;5063483;28;20067;-72
2023/01/05 13:19:18;;;;;;;;;;;;;;;;;;;;;
2023/01/05 13:22:17;;;;;;;0.45;0.45;;;;;;;;;;5132792;27;20034;-73
2023/01/05 13:25:55;;;;;;;;;;;;;;;;;;;;;
2023/01/05 13:28:58;;;;;;;0.63;0.60;;;;;;;;;;5133099;27;20115;-73
2023/01/05 13:31:37;;;;;;;1.10;0.70;;;;;;;;;;5133148;27;20115;-73
2023/01/05 13:34:24;;;;;;;1.17;0.80;;;;;;;;;;5135177;27;20019;-73
2023/01/05 13:37:04;;;;;;;0.82;0.77;;;;;;;;;;5133854;27;20027;-73
2023/01/05 13:39:54;;;;;;;0.68;0.68;;;;;;;;;;5134460;27;20015;-73
2023/01/05 13:42:43;;;;;;;0.80;0.47;;;;;;;;;;5116470;27;20303;-73
2023/01/05 13:45:31;;;;;;;1.08;0.70;;;;;;;;;;5092142;28;20039;-73
2023/01/05 13:48:20;;;;;;;0.80;0.80;;;;;;;;;;5093896;28;20032;-73
2023/01/05 13:54:53;;;;;;;1.42;0.95;;;;;;;;;;5054754;28;20115;-73
2023/01/05 13:58:06;;;;;;;1.20;1.00;;;;;;;;;;5072987;28;20491;-73
2023/01/05 14:00:50;;;;;;;1.65;1.30;;;;;;;;;;5092714;28;20031;-73
2023/01/05 14:03:36;;;;;;;1.40;1.27;;;;;;;;;;5092122;28;20436;-76
2023/01/05 14:09:43;;;;;;;1.20;1.10;;;;;;;;;;5092319;28;20119;-70
2023/01/05 14:12:48;;;;;;;1.38;1.25;;;;;;;;;;5091912;28;20030;-72
2023/01/05 14:15:28;;;;;;;1.55;1.35;;;;;;;;;;5093527;28;20032;-72
2023/01/05 14:22:24;;;;;;;1.25;1.15;;;;;;;;;;5086788;28;20120;-72
2023/01/05 14:25:58;;;;;;;1.98;1.33;;;;;;;;;;5093286;28;20042;-72
2023/01/05 14:29:09;;;;;;;2.42;1.73;;;;;;;;;;5058843;28;20042;-72
2023/01/05 14:35:30;;;;;;;1.98;1.80;;;;;;;;;;5091267;28;20028;-72
2023/01/05 14:38:46;;;;;;;3.42;1.52;;;;;;;;;;5080803;28;20040;-72
2023/01/05 14:41:38;;;;;;;2.10;1.90;;;;;;;;;;5091452;28;20036;-72
2023/01/05 14:44:34;;;;;;;2.17;1.90;;;;;;;;;;5100754;28;20050;-72
2023/01/05 14:47:20;;;;;;;2.00;1.63;;;;;;;;;;5133579;27;20030;-72
2023/01/05 14:50:10;;;;;;;1.55;1.25;;;;;;;;;;5125883;28;20042;-72
2023/01/05 14:53:12;;;;;;;2.58;1.55;;;;;;;;;;5131311;27;20168;-71
2023/01/05 14:55:56;;;;;;;2.05;1.67;;;;;;;;;;5129633;28;20027;-72
2023/01/05 14:58:48;;;;;;;3.60;1.38;;;;;;;;;;5130448;28;20023;-72
2023/01/05 15:01:45;;;;;;;1.67;1.40;;;;;;;;;;5113765;28;20031;-72
2023/01/05 15:05:15;;;;;;;1.45;1.30;;;;;;;;;;5130640;28;20041;-72
2023/01/05 15:11:48;;;;;;;;;;;;;;;;;;;;;
2023/01/05 15:15:01;;;;;;;3.55;2.50;;;;;;;;;;5125763;27;20538;-72
2023/01/05 15:17:54;;;;;;;2.97;2.00;;;;;;;;;;5119614;27;20023;-72
2023/01/05 15:20:59;;;;;;;2.90;1.98;;;;;;;;;;5119614;27;20032;-72
2023/01/05 15:23:59;;;;;;;2.28;1.80;;;;;;;;;;5135681;27;20023;-66
2023/01/05 15:26:47;;;;;;;3.40;1.95;;;;;;;;;;5135910;27;20087;-66
2023/01/05 15:29:16;;;;;;;3.10;2.08;;;;;;;;;;5136937;27;20072;-66
2023/01/05 15:31:54;;;;;;;2.20;1.75;;;;;;;;;;5136006;27;20121;-66
2023/01/05 15:34:25;;;;;;;2.65;1.90;;;;;;;;;;5136392;27;20051;-66
2023/01/05 15:37:16;;;;;;;2.17;1.80;;;;;;;;;;5135516;27;20027;-66
2023/01/05 15:39:50;;;;;;;1.73;1.30;;;;;;;;;;5137605;27;20023;-66
2023/01/05 15:42:48;;;;;;;3.25;2.50;;;;;;;;;;5137240;27;20046;-66
2023/01/05 15:45:35;;;;;;;3.42;3.00;;;;;;;;;;5135536;27;20096;-66
2023/01/05 15:48:25;;;;;;;3.95;2.10;;;;;;;;;;5137297;27;20083;-69
2023/01/05 15:51:19;;;;;;;4.05;2.95;;;;;;;;;;5135687;27;20031;-69
2023/01/05 15:54:00;;;;;;;3.28;2.55;;;;;;;;;;5137007;27;20033;-69
2023/01/05 15:56:57;;;;;;;2.55;2.35;;;;;;;;;;5137147;27;20098;-63
2023/01/05 15:59:47;;;;;;;2.97;2.45;;;;;;;;;;5119861;27;20068;-73
2023/01/05 16:02:28;;;;;;;2.72;2.47;;;;;;;;;;5135633;27;20091;-71
2023/01/05 16:05:17;;;;;;;2.92;2.00;;;;;;;;;;5135617;27;20023;-69
2023/01/05 16:08:00;;;;;;;2.65;1.45;;;;;;;;;;5118603;27;20066;-73
2023/01/05 16:10:27;;;;;;;3.72;2.33;;;;;;;;;;5136834;27;20019;-73
2023/01/05 16:13:20;;;;;;;2.20;2.00;;;;;;;;;;5135178;27;20027;-72
2023/01/05 16:16:02;;;;;;;2.53;1.83;;;;;;;;;;5135344;27;20386;-67
2023/01/05 16:19:10;;;;;;;;;;;;;;;;;;;;;
2023/01/05 16:22:12;;;;;;;1.10;1.05;;;;;;;;;;5134315;27;20092;-72
2023/01/05 16:25:18;;;;;;;1.85;1.45;;;;;;;;;;5134473;27;20440;-71
2023/01/05 16:27:57;;;;;;;1.70;1.48;;;;;;;;;;5134391;27;20068;-68
2023/01/05 16:31:09;;;;;;;3.67;1.88;;;;;;;;;;5135722;27;20379;-73
2023/01/05 16:34:00;;;;;;;;;;;;;;;;;;;;;
2023/01/05 16:36:37;;;;;;;2.80;1.35;;;;;;;;;;5136787;27;20052;-69
2023/01/05 16:39:31;;;;;;;2.40;1.83;;;;;;;;;;5136282;27;20542;-72
2023/01/05 16:45:13;;;;;;;2.03;1.60;;;;;;;;;;5136402;27;20111;-72
2023/01/05 16:48:21;;;;;;;;;;;;;;;;;;;;;
2023/01/05 16:51:37;;;;;;;1.98;1.63;;;;;;;;;;5113280;27;20039;-72
2023/01/05 16:54:57;;;;;;;1.98;1.40;;;;;;;;;;5135054;27;20131;-71
2023/01/05 16:58:00;;;;;;;2.28;1.50;;;;;;;;;;5134956;27;20049;-71
2023/01/05 17:00:37;;;;;;;1.60;1.42;;;;;;;;;;5134452;27;20023;-71
2023/01/05 17:04:01;;;;;;;1.70;1.58;;;;;;;;;;5134102;27;20031;-72
2023/01/05 17:07:13;;;;;;;2.17;1.67;;;;;;;;;;5134001;27;20034;-72
2023/01/05 17:10:21;;;;;;;2.92;1.60;;;;;;;;;;5134245;27;20031;-71
2023/01/05 17:13:17;;;;;;;2.97;2.05;;;;;;;;;;5134841;27;20027;-72
2023/01/05 17:16:18;;;;;;;4.38;2.22;;;;;;;;;;5133808;27;20026;-71
2023/01/05 17:19:19;;;;;;;4.20;2.13;;;;;;;;;;5134012;27;20061;-72
2023/01/05 17:22:11;;;;;;;2.70;1.95;;;;;;;;;;5134722;27;20031;-71
2023/01/05 17:25:34;;;;;;;2.60;1.75;;;;;;;;;;5135166;27;20106;-71
2023/01/05 17:28:33;;;;;;;2.20;1.80;;;;;;;;;;5135645;27;20490;-72
2023/01/05 17:31:48;;;;;;;1.77;1.30;;;;;;;;;;5124820;27;20027;-71
2023/01/05 17:35:02;;;;;;;3.97;1.95;;;;;;;;;;5134234;27;20046;-72
2023/01/05 17:38:01;;;;;;;3.80;2.30;;;;;;;;;;5134167;27;20497;-72
2023/01/05 17:41:02;;;;;;;1.95;1.75;;;;;;;;;;5130487;27;20058;-72
2023/01/05 17:47:32;;;;;;;;;;;;;;;;;;;;;
2023/01/05 17:50:17;;;;;;;2.17;1.73;;;;;;;;;;5134027;27;20051;-72
2023/01/05 17:53:05;;;;;;;2.92;1.63;;;;;;;;;;5118630;27;20041;-71
2023/01/05 17:59:31;;;;;;;2.83;2.03;;;;;;;;;;5131650;27;20043;-72
2023/01/05 18:02:09;;;;;;;2.78;2.15;;;;;;;;;;5117165;27;20386;-71
2023/01/05 18:05:33;;;;;;;;;;;;;;;;;;;;;
2023/01/05 18:08:37;;;;;;;2.88;1.80;;;;;;;;;;5134421;27;20023;-72
2023/01/05 18:11:47;;;;;;;;;;;;;;;;;;;;;
2023/01/05 18:14:50;;;;;;;2.88;1.80;;;;;;;;;;5133266;27;20031;-71
2023/01/05 18:17:23;;;;;;;3.88;1.88;;;;;;;;;;5106824;27;20027;-65
2023/01/05 18:20:18;;;;;;;;;;;;;;;;;;;;;
2023/01/05 18:23:24;;;;;;;3.95;2.08;;;;;;;;;;5129318;27;20031;-64
2023/01/05 18:30:14;;;;;;;;;;;;;;;;;;;;;
2023/01/05 18:33:36;;;;;;;3.00;1.88;;;;;;;;;;5132635;27;20113;-71
2023/01/05 18:40:45;;;;;;;6.55;2.30;;;;;;;;;;5114232;27;20030;-75
2023/01/05 18:43:37;;;;;;;3.08;2.05;;;;;;;;;;5056689;28;20040;-72
2023/01/05 18:46:51;;;;;;;;;;;;;;;;;;;;;
2023/01/05 18:53:46;;;;;;;;;;;;;;;;;;;;;
2023/01/05 19:00:05;;;;;;;3.30;2.35;;;;;;;;;;5074072;28;20044;-76
2023/01/05 19:02:56;;;;;;;2.67;2.13;;;;;;;;;;5112535;27;20088;-76
2023/01/05 19:06:03;;;;;;;2.55;1.55;;;;;;;;;;5136553;27;20283;-75